sensor_id;sensor_type;location;lat;lon;timestamp;temperature;humidity
37974;DHT22;23796;51.458;7.000;2023-09-19T00:00:01;16.00;99.90
37974;DHT22;23796;51.458;7.000;2023-09-19T00:02:29;15.90;99.90
37974;DHT22;23796;51.458;7.000;2023-09-19T00:04:57;15.90;99.70
37974;DHT22;23796;51.458;7.000;2023-09-19T00:07:25;15.90;99.60
37974;DHT22;23796;51.458;7.000;2023-09-19T00:09:50;15.80;99.60
37974;DHT22;23796;51.458;7.000;2023-09-19T00:12:16;15.80;99.40
37974;DHT22;23796;51.458;7.000;2023-09-19T00:14:43;15.80;99.30
37974;DHT22;23796;51.458;7.000;2023-09-19T00:17:08;15.70;99.10
37974;DHT22;23796;51.458;7.000;2023-09-19T00:19:35;15.70;99.20
37974;DHT22;23796;51.458;7.000;2023-09-19T00:22:04;15.70;99.30
37974;DHT22;23796;51.458;7.000;2023-09-19T00:24:29;15.70;99.30
37974;DHT22;23796;51.458;7.000;2023-09-19T00:26:56;15.60;99.40
37974;DHT22;23796;51.458;7.000;2023-09-19T00:29:27;15.60;99.60
37974;DHT22;23796;51.458;7.000;2023-09-19T00:31:55;15.60;99.90
37974;DHT22;23796;51.458;7.000;2023-09-19T00:34:22;15.60;99.90
37974;DHT22;23796;51.458;7.000;2023-09-19T00:36:48;15.60;99.90
37974;DHT22;23796;51.458;7.000;2023-09-19T00:39:13;15.50;99.90
37974;DHT22;23796;51.458;7.000;2023-09-19T00:41:41;15.50;99.90
37974;DHT22;23796;51.458;7.000;2023-09-19T00:44:10;15.50;99.90
37974;DHT22;23796;51.458;7.000;2023-09-19T00:46:35;15.50;99.90
37974;DHT22;23796;51.458;7.000;2023-09-19T00:49:02;15.50;99.90
37974;DHT22;23796;51.458;7.000;2023-09-19T00:51:30;15.40;99.90
37974;DHT22;23796;51.458;7.000;2023-09-19T00:53:56;15.40;99.70
37974;DHT22;23796;51.458;7.000;2023-09-19T00:56:21;15.40;99.70
37974;DHT22;23796;51.458;7.000;2023-09-19T00:58:48;15.40;99.60
37974;DHT22;23796;51.458;7.000;2023-09-19T01:01:14;15.40;99.50
37974;DHT22;23796;51.458;7.000;2023-09-19T01:03:43;15.40;99.60
37974;DHT22;23796;51.458;7.000;2023-09-19T01:06:09;15.30;99.60
37974;DHT22;23796;51.458;7.000;2023-09-19T01:08:37;15.30;99.50
37974;DHT22;23796;51.458;7.000;2023-09-19T01:27:43;15.20;99.90
37974;DHT22;23796;51.458;7.000;2023-09-19T01:30:14;15.20;99.90
37974;DHT22;23796;51.458;7.000;2023-09-19T01:32:45;15.20;99.90
37974;DHT22;23796;51.458;7.000;2023-09-19T01:35:11;15.20;99.90
37974;DHT22;23796;51.458;7.000;2023-09-19T01:37:38;15.10;99.90
37974;DHT22;23796;51.458;7.000;2023-09-19T01:40:09;15.10;99.90
37974;DHT22;23796;51.458;7.000;2023-09-19T01:48:12;15.10;99.90
37974;DHT22;23796;51.458;7.000;2023-09-19T01:50:59;15.10;99.90
37974;DHT22;23796;51.458;7.000;2023-09-19T01:53:35;15.00;99.70
37974;DHT22;23796;51.458;7.000;2023-09-19T01:56:02;15.00;99.50
37974;DHT22;23796;51.458;7.000;2023-09-19T01:58:35;15.00;99.50
37974;DHT22;23796;51.458;7.000;2023-09-19T02:01:05;15.00;99.40
37974;DHT22;23796;51.458;7.000;2023-09-19T02:03:33;14.90;99.50
37974;DHT22;23796;51.458;7.000;2023-09-19T02:06:00;14.90;99.60
37974;DHT22;23796;51.458;7.000;2023-09-19T02:08:26;14.90;99.70
37974;DHT22;23796;51.458;7.000;2023-09-19T02:10:52;14.90;99.80
37974;DHT22;23796;51.458;7.000;2023-09-19T02:13:22;14.90;99.70
37974;DHT22;23796;51.458;7.000;2023-09-19T02:15:53;14.90;99.80
37974;DHT22;23796;51.458;7.000;2023-09-19T02:18:19;14.80;99.90
37974;DHT22;23796;51.458;7.000;2023-09-19T02:20:45;14.80;99.70
37974;DHT22;23796;51.458;7.000;2023-09-19T02:23:12;14.80;99.60
37974;DHT22;23796;51.458;7.000;2023-09-19T02:25:38;14.80;99.70
37974;DHT22;23796;51.458;7.000;2023-09-19T02:28:05;14.80;99.60
37974;DHT22;23796;51.458;7.000;2023-09-19T02:30:31;14.80;99.50
37974;DHT22;23796;51.458;7.000;2023-09-19T02:32:57;14.80;99.70
37974;DHT22;23796;51.458;7.000;2023-09-19T02:35:25;14.70;99.60
37974;DHT22;23796;51.458;7.000;2023-09-19T02:37:53;14.70;99.60
37974;DHT22;23796;51.458;7.000;2023-09-19T02:40:19;14.70;99.60
37974;DHT22;23796;51.458;7.000;2023-09-19T02:42:49;14.70;99.70
37974;DHT22;23796;51.458;7.000;2023-09-19T02:45:18;14.70;99.60
37974;DHT22;23796;51.458;7.000;2023-09-19T02:47:47;14.70;99.60
37974;DHT22;23796;51.458;7.000;2023-09-19T02:50:14;14.80;99.60
37974;DHT22;23796;51.458;7.000;2023-09-19T02:52:46;14.80;99.40
37974;DHT22;23796;51.458;7.000;2023-09-19T02:55:16;14.80;98.90
37974;DHT22;23796;51.458;7.000;2023-09-19T02:57:48;14.80;98.80
37974;DHT22;23796;51.458;7.000;2023-09-19T03:00:18;14.80;98.70
37974;DHT22;23796;51.458;7.000;2023-09-19T03:02:50;14.80;98.60
37974;DHT22;23796;51.458;7.000;2023-09-19T03:05:16;14.80;98.40
37974;DHT22;23796;51.458;7.000;2023-09-19T03:07:42;14.80;98.10
37974;DHT22;23796;51.458;7.000;2023-09-19T03:10:09;14.80;97.90
37974;DHT22;23796;51.458;7.000;2023-09-19T03:12:35;14.80;97.50
37974;DHT22;23796;51.458;7.000;2023-09-19T03:15:01;14.80;97.10
37974;DHT22;23796;51.458;7.000;2023-09-19T03:17:26;14.80;97.00
37974;DHT22;23796;51.458;7.000;2023-09-19T03:19:52;14.80;96.80
37974;DHT22;23796;51.458;7.000;2023-09-19T03:22:19;14.80;96.70
37974;DHT22;23796;51.458;7.000;2023-09-19T03:24:45;14.80;96.10
37974;DHT22;23796;51.458;7.000;2023-09-19T03:27:12;14.80;96.00
37974;DHT22;23796;51.458;7.000;2023-09-19T03:29:39;14.80;96.00
37974;DHT22;23796;51.458;7.000;2023-09-19T03:32:05;14.80;95.90
37974;DHT22;23796;51.458;7.000;2023-09-19T03:34:31;14.70;95.90
37974;DHT22;23796;51.458;7.000;2023-09-19T03:36:56;14.70;96.00
37974;DHT22;23796;51.458;7.000;2023-09-19T03:39:22;14.70;95.90
37974;DHT22;23796;51.458;7.000;2023-09-19T03:41:48;14.70;96.10
37974;DHT22;23796;51.458;7.000;2023-09-19T03:44:15;14.70;96.10
37974;DHT22;23796;51.458;7.000;2023-09-19T03:46:40;14.70;96.10
37974;DHT22;23796;51.458;7.000;2023-09-19T03:49:06;14.70;96.10
37974;DHT22;23796;51.458;7.000;2023-09-19T03:51:32;14.70;96.10
37974;DHT22;23796;51.458;7.000;2023-09-19T03:53:59;14.70;95.90
37974;DHT22;23796;51.458;7.000;2023-09-19T03:56:25;14.70;96.00
37974;DHT22;23796;51.458;7.000;2023-09-19T03:58:51;14.70;95.80
37974;DHT22;23796;51.458;7.000;2023-09-19T04:01:16;14.70;95.90
37974;DHT22;23796;51.458;7.000;2023-09-19T04:03:43;14.70;95.80
37974;DHT22;23796;51.458;7.000;2023-09-19T04:06:16;14.70;95.60
37974;DHT22;23796;51.458;7.000;2023-09-19T04:08:44;14.70;95.70
37974;DHT22;23796;51.458;7.000;2023-09-19T04:11:10;14.70;95.70
37974;DHT22;23796;51.458;7.000;2023-09-19T04:13:36;14.70;95.50
37974;DHT22;23796;51.458;7.000;2023-09-19T04:16:04;14.70;95.40
37974;DHT22;23796;51.458;7.000;2023-09-19T04:18:32;14.70;95.30
37974;DHT22;23796;51.458;7.000;2023-09-19T04:21:02;14.80;95.10
37974;DHT22;23796;51.458;7.000;2023-09-19T04:23:31;14.70;95.20
37974;DHT22;23796;51.458;7.000;2023-09-19T04:25:57;14.80;95.30
37974;DHT22;23796;51.458;7.000;2023-09-19T04:28:23;14.80;95.30
37974;DHT22;23796;51.458;7.000;2023-09-19T04:30:49;14.80;95.30
37974;DHT22;23796;51.458;7.000;2023-09-19T04:33:17;14.70;95.30
37974;DHT22;23796;51.458;7.000;2023-09-19T04:35:44;14.80;95.30
37974;DHT22;23796;51.458;7.000;2023-09-19T04:38:09;14.70;95.40
37974;DHT22;23796;51.458;7.000;2023-09-19T04:40:35;14.70;95.50
37974;DHT22;23796;51.458;7.000;2023-09-19T04:43:00;14.70;95.70
37974;DHT22;23796;51.458;7.000;2023-09-19T04:45:27;14.80;95.70
37974;DHT22;23796;51.458;7.000;2023-09-19T04:47:53;14.80;95.80
37974;DHT22;23796;51.458;7.000;2023-09-19T04:50:20;14.80;95.80
37974;DHT22;23796;51.458;7.000;2023-09-19T04:52:49;14.80;95.80
37974;DHT22;23796;51.458;7.000;2023-09-19T04:55:19;14.80;95.90
37974;DHT22;23796;51.458;7.000;2023-09-19T04:57:52;14.70;96.00
37974;DHT22;23796;51.458;7.000;2023-09-19T05:00:22;14.80;96.00
37974;DHT22;23796;51.458;7.000;2023-09-19T05:02:50;14.80;96.10
37974;DHT22;23796;51.458;7.000;2023-09-19T05:05:17;14.70;96.20
37974;DHT22;23796;51.458;7.000;2023-09-19T05:07:44;14.70;96.30
37974;DHT22;23796;51.458;7.000;2023-09-19T05:10:12;14.70;96.50
37974;DHT22;23796;51.458;7.000;2023-09-19T05:12:44;14.70;96.70
37974;DHT22;23796;51.458;7.000;2023-09-19T05:15:12;14.70;96.50
37974;DHT22;23796;51.458;7.000;2023-09-19T05:17:37;14.70;96.50
37974;DHT22;23796;51.458;7.000;2023-09-19T05:20:05;14.70;96.50
37974;DHT22;23796;51.458;7.000;2023-09-19T05:22:41;14.70;96.70
37974;DHT22;23796;51.458;7.000;2023-09-19T05:25:08;14.60;96.70
37974;DHT22;23796;51.458;7.000;2023-09-19T05:27:34;14.70;96.70
37974;DHT22;23796;51.458;7.000;2023-09-19T05:30:00;14.70;96.80
37974;DHT22;23796;51.458;7.000;2023-09-19T05:32:25;14.70;96.70
37974;DHT22;23796;51.458;7.000;2023-09-19T05:34:51;14.70;96.70
37974;DHT22;23796;51.458;7.000;2023-09-19T05:37:22;14.80;96.50
37974;DHT22;23796;51.458;7.000;2023-09-19T05:39:49;14.80;96.30
37974;DHT22;23796;51.458;7.000;2023-09-19T05:42:14;14.80;96.20
37974;DHT22;23796;51.458;7.000;2023-09-19T05:44:40;14.80;95.90
37974;DHT22;23796;51.458;7.000;2023-09-19T05:47:05;15.00;95.50
37974;DHT22;23796;51.458;7.000;2023-09-19T05:49:37;15.10;95.10
37974;DHT22;23796;51.458;7.000;2023-09-19T05:52:06;15.20;94.70
37974;DHT22;23796;51.458;7.000;2023-09-19T05:54:32;15.20;94.30
37974;DHT22;23796;51.458;7.000;2023-09-19T05:57:00;15.30;94.10
37974;DHT22;23796;51.458;7.000;2023-09-19T05:59:25;15.40;93.70
37974;DHT22;23796;51.458;7.000;2023-09-19T06:01:51;15.40;93.60
37974;DHT22;23796;51.458;7.000;2023-09-19T06:04:17;15.50;93.30
37974;DHT22;23796;51.458;7.000;2023-09-19T06:06:44;15.50;92.80
37974;DHT22;23796;51.458;7.000;2023-09-19T06:09:10;15.60;92.60
37974;DHT22;23796;51.458;7.000;2023-09-19T06:11:36;15.60;92.60
37974;DHT22;23796;51.458;7.000;2023-09-19T06:14:07;15.70;92.40
37974;DHT22;23796;51.458;7.000;2023-09-19T06:16:32;15.70;92.20
37974;DHT22;23796;51.458;7.000;2023-09-19T06:18:58;15.70;92.00
37974;DHT22;23796;51.458;7.000;2023-09-19T06:21:28;15.80;91.90
37974;DHT22;23796;51.458;7.000;2023-09-19T06:23:53;15.80;91.90
37974;DHT22;23796;51.458;7.000;2023-09-19T06:26:19;15.90;91.50
37974;DHT22;23796;51.458;7.000;2023-09-19T06:28:45;15.90;91.30
37974;DHT22;23796;51.458;7.000;2023-09-19T06:31:13;15.90;91.10
37974;DHT22;23796;51.458;7.000;2023-09-19T06:33:39;15.90;91.10
37974;DHT22;23796;51.458;7.000;2023-09-19T06:36:07;16.00;91.10
37974;DHT22;23796;51.458;7.000;2023-09-19T06:38:33;16.00;90.80
37974;DHT22;23796;51.458;7.000;2023-09-19T06:41:02;16.00;90.60
37974;DHT22;23796;51.458;7.000;2023-09-19T06:43:32;16.10;90.40
37974;DHT22;23796;51.458;7.000;2023-09-19T06:46:02;16.10;90.10
37974;DHT22;23796;51.458;7.000;2023-09-19T06:48:31;16.20;90.20
37974;DHT22;23796;51.458;7.000;2023-09-19T06:50:58;16.10;90.10
37974;DHT22;23796;51.458;7.000;2023-09-19T06:53:28;16.10;90.20
37974;DHT22;23796;51.458;7.000;2023-09-19T06:55:59;16.10;90.40
37974;DHT22;23796;51.458;7.000;2023-09-19T06:58:24;16.10;90.30
37974;DHT22;23796;51.458;7.000;2023-09-19T07:00:50;16.10;90.20
37974;DHT22;23796;51.458;7.000;2023-09-19T07:03:16;16.10;90.30
37974;DHT22;23796;51.458;7.000;2023-09-19T07:05:44;16.20;90.40
37974;DHT22;23796;51.458;7.000;2023-09-19T07:08:12;16.20;90.50
37974;DHT22;23796;51.458;7.000;2023-09-19T07:10:38;16.20;90.60
37974;DHT22;23796;51.458;7.000;2023-09-19T07:13:13;16.20;90.60
37974;DHT22;23796;51.458;7.000;2023-09-19T07:15:42;16.30;90.70
37974;DHT22;23796;51.458;7.000;2023-09-19T07:18:13;16.30;90.70
37974;DHT22;23796;51.458;7.000;2023-09-19T07:20:42;16.40;90.50
37974;DHT22;23796;51.458;7.000;2023-09-19T07:23:21;16.40;90.60
37974;DHT22;23796;51.458;7.000;2023-09-19T07:25:49;16.40;90.50
37974;DHT22;23796;51.458;7.000;2023-09-19T07:28:18;16.40;90.50
37974;DHT22;23796;51.458;7.000;2023-09-19T07:30:46;16.50;90.60
37974;DHT22;23796;51.458;7.000;2023-09-19T07:33:14;16.50;90.30
37974;DHT22;23796;51.458;7.000;2023-09-19T07:35:45;16.50;90.30
37974;DHT22;23796;51.458;7.000;2023-09-19T07:38:13;16.50;90.20
37974;DHT22;23796;51.458;7.000;2023-09-19T07:40:39;16.60;90.30
37974;DHT22;23796;51.458;7.000;2023-09-19T07:43:07;16.50;90.40
37974;DHT22;23796;51.458;7.000;2023-09-19T07:45:34;16.60;90.10
37974;DHT22;23796;51.458;7.000;2023-09-19T07:47:59;16.70;90.20
37974;DHT22;23796;51.458;7.000;2023-09-19T07:50:30;16.70;90.00
37974;DHT22;23796;51.458;7.000;2023-09-19T07:53:00;16.80;89.80
37974;DHT22;23796;51.458;7.000;2023-09-19T07:55:27;16.70;90.00
37974;DHT22;23796;51.458;7.000;2023-09-19T07:57:53;16.70;90.40
37974;DHT22;23796;51.458;7.000;2023-09-19T08:00:18;16.80;90.20
37974;DHT22;23796;51.458;7.000;2023-09-19T08:02:45;16.80;89.70
37974;DHT22;23796;51.458;7.000;2023-09-19T08:05:12;16.80;89.70
37974;DHT22;23796;51.458;7.000;2023-09-19T08:07:45;16.80;90.00
37974;DHT22;23796;51.458;7.000;2023-09-19T08:10:15;17.00;89.40
37974;DHT22;23796;51.458;7.000;2023-09-19T08:12:42;17.00;89.00
37974;DHT22;23796;51.458;7.000;2023-09-19T08:15:14;17.10;89.20
37974;DHT22;23796;51.458;7.000;2023-09-19T08:17:40;17.20;89.10
37974;DHT22;23796;51.458;7.000;2023-09-19T08:20:09;17.20;88.70
37974;DHT22;23796;51.458;7.000;2023-09-19T08:22:46;17.20;88.90
37974;DHT22;23796;51.458;7.000;2023-09-19T08:25:13;17.20;89.00
37974;DHT22;23796;51.458;7.000;2023-09-19T08:27:39;17.10;89.10
37974;DHT22;23796;51.458;7.000;2023-09-19T08:30:05;17.10;89.20
37974;DHT22;23796;51.458;7.000;2023-09-19T08:32:31;17.00;89.20
37974;DHT22;23796;51.458;7.000;2023-09-19T08:35:00;17.00;89.60
37974;DHT22;23796;51.458;7.000;2023-09-19T08:37:26;17.10;89.30
37974;DHT22;23796;51.458;7.000;2023-09-19T08:39:51;17.30;88.80
37974;DHT22;23796;51.458;7.000;2023-09-19T08:42:17;17.60;87.80
37974;DHT22;23796;51.458;7.000;2023-09-19T08:44:45;17.80;87.30
37974;DHT22;23796;51.458;7.000;2023-09-19T08:47:16;17.70;87.20
37974;DHT22;23796;51.458;7.000;2023-09-19T08:50:30;17.70;87.30
37974;DHT22;23796;51.458;7.000;2023-09-19T08:53:01;17.70;87.50
37974;DHT22;23796;51.458;7.000;2023-09-19T08:55:29;17.70;87.20
37974;DHT22;23796;51.458;7.000;2023-09-19T08:58:01;17.80;87.20
37974;DHT22;23796;51.458;7.000;2023-09-19T09:00:32;17.80;86.80
37974;DHT22;23796;51.458;7.000;2023-09-19T09:02:58;17.90;86.90
37974;DHT22;23796;51.458;7.000;2023-09-19T09:05:28;17.90;86.40
37974;DHT22;23796;51.458;7.000;2023-09-19T09:07:54;17.90;86.10
37974;DHT22;23796;51.458;7.000;2023-09-19T09:10:22;17.90;86.10
37974;DHT22;23796;51.458;7.000;2023-09-19T09:12:52;18.10;85.80
37974;DHT22;23796;51.458;7.000;2023-09-19T09:15:21;18.20;85.20
37974;DHT22;23796;51.458;7.000;2023-09-19T09:17:51;18.20;85.40
37974;DHT22;23796;51.458;7.000;2023-09-19T09:20:23;18.20;85.50
37974;DHT22;23796;51.458;7.000;2023-09-19T09:22:56;18.30;84.60
37974;DHT22;23796;51.458;7.000;2023-09-19T09:25:52;18.40;84.60
37974;DHT22;23796;51.458;7.000;2023-09-19T09:28:26;18.50;84.40
37974;DHT22;23796;51.458;7.000;2023-09-19T09:30:54;18.30;83.60
37974;DHT22;23796;51.458;7.000;2023-09-19T09:33:19;18.30;84.50
37974;DHT22;23796;51.458;7.000;2023-09-19T09:38:18;18.80;82.40
37974;DHT22;23796;51.458;7.000;2023-09-19T09:40:52;18.80;82.10
37974;DHT22;23796;51.458;7.000;2023-09-19T09:43:30;18.80;82.30
37974;DHT22;23796;51.458;7.000;2023-09-19T09:46:15;18.90;81.10
37974;DHT22;23796;51.458;7.000;2023-09-19T09:49:03;19.00;81.20
37974;DHT22;23796;51.458;7.000;2023-09-19T09:51:37;19.10;80.70
37974;DHT22;23796;51.458;7.000;2023-09-19T09:54:15;19.10;80.90
37974;DHT22;23796;51.458;7.000;2023-09-19T09:56:56;19.30;80.00
37974;DHT22;23796;51.458;7.000;2023-09-19T09:59:51;19.30;79.90
37974;DHT22;23796;51.458;7.000;2023-09-19T10:02:26;19.10;80.70
37974;DHT22;23796;51.458;7.000;2023-09-19T10:05:19;19.30;80.80
37974;DHT22;23796;51.458;7.000;2023-09-19T10:07:55;19.70;79.40
37974;DHT22;23796;51.458;7.000;2023-09-19T10:10:38;19.90;79.40
37974;DHT22;23796;51.458;7.000;2023-09-19T10:13:07;20.00;78.30
37974;DHT22;23796;51.458;7.000;2023-09-19T10:15:33;19.80;78.40
37974;DHT22;23796;51.458;7.000;2023-09-19T10:18:04;19.40;79.10
37974;DHT22;23796;51.458;7.000;2023-09-19T10:20:30;19.30;80.40
37974;DHT22;23796;51.458;7.000;2023-09-19T10:23:07;19.30;80.30
37974;DHT22;23796;51.458;7.000;2023-09-19T10:25:48;19.30;79.40
37974;DHT22;23796;51.458;7.000;2023-09-19T10:28:16;19.40;79.00
37974;DHT22;23796;51.458;7.000;2023-09-19T10:30:52;19.50;78.20
37974;DHT22;23796;51.458;7.000;2023-09-19T10:33:20;19.70;78.10
37974;DHT22;23796;51.458;7.000;2023-09-19T10:35:48;19.80;77.20
37974;DHT22;23796;51.458;7.000;2023-09-19T10:38:17;19.80;77.00
37974;DHT22;23796;51.458;7.000;2023-09-19T10:40:44;19.80;77.30
37974;DHT22;23796;51.458;7.000;2023-09-19T10:43:16;19.80;77.80
37974;DHT22;23796;51.458;7.000;2023-09-19T10:45:47;19.70;77.40
37974;DHT22;23796;51.458;7.000;2023-09-19T10:48:16;19.80;77.10
37974;DHT22;23796;51.458;7.000;2023-09-19T10:51:14;19.90;76.70
37974;DHT22;23796;51.458;7.000;2023-09-19T10:53:56;19.90;76.60
37974;DHT22;23796;51.458;7.000;2023-09-19T10:56:34;19.90;76.20
37974;DHT22;23796;51.458;7.000;2023-09-19T10:59:08;19.80;75.80
37974;DHT22;23796;51.458;7.000;2023-09-19T11:04:36;19.60;76.30
37974;DHT22;23796;51.458;7.000;2023-09-19T11:07:16;19.60;77.00
37974;DHT22;23796;51.458;7.000;2023-09-19T11:15:07;19.80;76.50
37974;DHT22;23796;51.458;7.000;2023-09-19T11:17:38;20.00;76.50
37974;DHT22;23796;51.458;7.000;2023-09-19T11:30:54;20.30;74.80
37974;DHT22;23796;51.458;7.000;2023-09-19T11:36:08;20.40;74.80
37974;DHT22;23796;51.458;7.000;2023-09-19T11:49:29;20.90;72.70
37974;DHT22;23796;51.458;7.000;2023-09-19T11:52:01;21.00;72.70
37974;DHT22;23796;51.458;7.000;2023-09-19T11:54:31;20.70;73.00
37974;DHT22;23796;51.458;7.000;2023-09-19T11:57:00;20.70;73.50
37974;DHT22;23796;51.458;7.000;2023-09-19T11:59:27;20.80;73.80
37974;DHT22;23796;51.458;7.000;2023-09-19T12:02:04;21.20;72.90
37974;DHT22;23796;51.458;7.000;2023-09-19T12:04:43;21.20;71.90
37974;DHT22;23796;51.458;7.000;2023-09-19T12:07:14;21.20;72.00
37974;DHT22;23796;51.458;7.000;2023-09-19T12:10:01;21.10;71.50
37974;DHT22;23796;51.458;7.000;2023-09-19T12:12:30;20.90;71.80
37974;DHT22;23796;51.458;7.000;2023-09-19T12:14:58;20.90;72.40
37974;DHT22;23796;51.458;7.000;2023-09-19T12:17:41;21.10;72.20
37974;DHT22;23796;51.458;7.000;2023-09-19T12:20:12;21.00;71.40
37974;DHT22;23796;51.458;7.000;2023-09-19T12:22:45;21.00;70.60
37974;DHT22;23796;51.458;7.000;2023-09-19T12:25:14;20.90;71.00
37974;DHT22;23796;51.458;7.000;2023-09-19T12:27:49;20.70;70.50
37974;DHT22;23796;51.458;7.000;2023-09-19T12:30:18;20.70;71.70
37974;DHT22;23796;51.458;7.000;2023-09-19T12:32:46;20.70;71.40
37974;DHT22;23796;51.458;7.000;2023-09-19T12:35:28;20.70;71.10
37974;DHT22;23796;51.458;7.000;2023-09-19T12:37:56;20.70;70.50
37974;DHT22;23796;51.458;7.000;2023-09-19T12:40:22;20.70;70.70
37974;DHT22;23796;51.458;7.000;2023-09-19T12:42:53;20.70;70.30
37974;DHT22;23796;51.458;7.000;2023-09-19T12:45:20;20.80;70.30
37974;DHT22;23796;51.458;7.000;2023-09-19T12:51:07;20.80;70.40
37974;DHT22;23796;51.458;7.000;2023-09-19T12:53:41;20.90;69.90
37974;DHT22;23796;51.458;7.000;2023-09-19T12:56:15;20.90;69.70
37974;DHT22;23796;51.458;7.000;2023-09-19T12:58:57;21.10;69.70
37974;DHT22;23796;51.458;7.000;2023-09-19T13:01:29;21.20;69.30
37974;DHT22;23796;51.458;7.000;2023-09-19T13:04:20;21.30;69.00
37974;DHT22;23796;51.458;7.000;2023-09-19T13:06:52;21.30;69.00
37974;DHT22;23796;51.458;7.000;2023-09-19T13:09:22;21.40;68.80
37974;DHT22;23796;51.458;7.000;2023-09-19T13:11:53;21.50;68.10
37974;DHT22;23796;51.458;7.000;2023-09-19T13:14:24;21.40;68.50
37974;DHT22;23796;51.458;7.000;2023-09-19T13:19:50;21.30;68.50
37974;DHT22;23796;51.458;7.000;2023-09-19T13:22:41;21.20;69.10
37974;DHT22;23796;51.458;7.000;2023-09-19T13:25:14;21.20;69.00
37974;DHT22;23796;51.458;7.000;2023-09-19T13:27:44;21.10;69.20
37974;DHT22;23796;51.458;7.000;2023-09-19T13:30:11;21.10;68.80
37974;DHT22;23796;51.458;7.000;2023-09-19T13:32:37;21.10;69.10
37974;DHT22;23796;51.458;7.000;2023-09-19T13:35:04;21.10;69.60
37974;DHT22;23796;51.458;7.000;2023-09-19T13:37:32;21.20;69.60
37974;DHT22;23796;51.458;7.000;2023-09-19T13:39:58;21.20;69.80
37974;DHT22;23796;51.458;7.000;2023-09-19T13:42:27;21.40;69.80
37974;DHT22;23796;51.458;7.000;2023-09-19T13:44:55;21.60;69.00
37974;DHT22;23796;51.458;7.000;2023-09-19T13:47:21;21.60;68.40
37974;DHT22;23796;51.458;7.000;2023-09-19T13:49:52;21.80;68.60
37974;DHT22;23796;51.458;7.000;2023-09-19T13:52:21;21.80;67.80
37974;DHT22;23796;51.458;7.000;2023-09-19T13:54:51;21.70;68.20
37974;DHT22;23796;51.458;7.000;2023-09-19T13:57:20;21.70;68.40
37974;DHT22;23796;51.458;7.000;2023-09-19T13:59:46;21.60;69.00
37974;DHT22;23796;51.458;7.000;2023-09-19T14:02:14;21.70;69.00
37974;DHT22;23796;51.458;7.000;2023-09-19T14:04:40;21.60;68.90
37974;DHT22;23796;51.458;7.000;2023-09-19T14:07:07;21.50;69.50
37974;DHT22;23796;51.458;7.000;2023-09-19T14:09:33;21.60;69.40
37974;DHT22;23796;51.458;7.000;2023-09-19T14:11:59;21.50;69.60
37974;DHT22;23796;51.458;7.000;2023-09-19T14:14:25;21.60;69.80
37974;DHT22;23796;51.458;7.000;2023-09-19T14:16:50;21.80;69.50
37974;DHT22;23796;51.458;7.000;2023-09-19T14:19:17;21.80;69.30
37974;DHT22;23796;51.458;7.000;2023-09-19T14:21:43;21.80;69.60
37974;DHT22;23796;51.458;7.000;2023-09-19T14:24:09;21.80;69.90
37974;DHT22;23796;51.458;7.000;2023-09-19T14:26:38;21.80;69.80
37974;DHT22;23796;51.458;7.000;2023-09-19T14:29:06;21.80;69.60
37974;DHT22;23796;51.458;7.000;2023-09-19T14:31:37;21.70;69.70
37974;DHT22;23796;51.458;7.000;2023-09-19T14:34:04;21.60;70.20
37974;DHT22;23796;51.458;7.000;2023-09-19T14:36:30;21.50;70.30
37974;DHT22;23796;51.458;7.000;2023-09-19T14:38:56;21.50;70.40
37974;DHT22;23796;51.458;7.000;2023-09-19T14:41:25;21.40;70.80
37974;DHT22;23796;51.458;7.000;2023-09-19T14:43:56;21.50;70.70
37974;DHT22;23796;51.458;7.000;2023-09-19T14:46:22;21.50;70.70
37974;DHT22;23796;51.458;7.000;2023-09-19T14:48:52;21.50;70.80
37974;DHT22;23796;51.458;7.000;2023-09-19T14:51:18;21.40;71.00
37974;DHT22;23796;51.458;7.000;2023-09-19T14:53:47;21.40;71.00
37974;DHT22;23796;51.458;7.000;2023-09-19T14:56:17;21.40;71.50
37974;DHT22;23796;51.458;7.000;2023-09-19T14:58:45;21.30;71.70
37974;DHT22;23796;51.458;7.000;2023-09-19T15:01:13;21.30;72.20
37974;DHT22;23796;51.458;7.000;2023-09-19T15:03:42;21.30;71.80
37974;DHT22;23796;51.458;7.000;2023-09-19T15:06:12;21.40;71.90
37974;DHT22;23796;51.458;7.000;2023-09-19T15:08:43;21.30;71.70
37974;DHT22;23796;51.458;7.000;2023-09-19T15:11:16;21.20;71.90
37974;DHT22;23796;51.458;7.000;2023-09-19T15:13:43;21.10;72.50
37974;DHT22;23796;51.458;7.000;2023-09-19T15:16:09;21.00;72.60
37974;DHT22;23796;51.458;7.000;2023-09-19T15:18:41;21.00;72.80
37974;DHT22;23796;51.458;7.000;2023-09-19T15:21:09;20.90;72.90
37974;DHT22;23796;51.458;7.000;2023-09-19T15:23:36;20.80;73.20
37974;DHT22;23796;51.458;7.000;2023-09-19T15:26:06;20.70;73.50
37974;DHT22;23796;51.458;7.000;2023-09-19T15:28:37;20.70;73.70
37974;DHT22;23796;51.458;7.000;2023-09-19T15:31:06;20.70;73.80
37974;DHT22;23796;51.458;7.000;2023-09-19T15:33:33;20.70;73.80
37974;DHT22;23796;51.458;7.000;2023-09-19T15:36:05;20.70;73.70
37974;DHT22;23796;51.458;7.000;2023-09-19T15:38:50;20.80;73.70
37974;DHT22;23796;51.458;7.000;2023-09-19T15:41:21;21.00;73.10
37974;DHT22;23796;51.458;7.000;2023-09-19T15:43:47;21.10;72.80
37974;DHT22;23796;51.458;7.000;2023-09-19T15:46:15;21.20;72.60
37974;DHT22;23796;51.458;7.000;2023-09-19T15:48:41;21.10;72.20
37974;DHT22;23796;51.458;7.000;2023-09-19T15:51:07;21.10;72.40
37974;DHT22;23796;51.458;7.000;2023-09-19T15:53:45;21.10;72.30
37974;DHT22;23796;51.458;7.000;2023-09-19T15:56:12;21.00;72.50
37974;DHT22;23796;51.458;7.000;2023-09-19T15:58:44;21.00;72.70
37974;DHT22;23796;51.458;7.000;2023-09-19T16:01:10;20.90;73.00
37974;DHT22;23796;51.458;7.000;2023-09-19T16:03:37;20.70;73.10
37974;DHT22;23796;51.458;7.000;2023-09-19T16:06:13;20.70;73.30
37974;DHT22;23796;51.458;7.000;2023-09-19T16:08:40;20.60;73.70
37974;DHT22;23796;51.458;7.000;2023-09-19T16:11:10;20.50;73.80
37974;DHT22;23796;51.458;7.000;2023-09-19T16:13:39;20.40;73.90
37974;DHT22;23796;51.458;7.000;2023-09-19T16:16:14;20.40;73.80
37974;DHT22;23796;51.458;7.000;2023-09-19T16:18:55;20.40;73.60
37974;DHT22;23796;51.458;7.000;2023-09-19T16:21:27;20.30;74.00
37974;DHT22;23796;51.458;7.000;2023-09-19T16:23:53;20.30;74.10
37974;DHT22;23796;51.458;7.000;2023-09-19T16:26:20;20.20;74.20
37974;DHT22;23796;51.458;7.000;2023-09-19T16:28:47;20.20;74.60
37974;DHT22;23796;51.458;7.000;2023-09-19T16:31:13;20.20;74.60
37974;DHT22;23796;51.458;7.000;2023-09-19T16:33:40;20.20;74.70
37974;DHT22;23796;51.458;7.000;2023-09-19T16:36:13;20.20;74.80
37974;DHT22;23796;51.458;7.000;2023-09-19T16:38:39;20.10;74.90
37974;DHT22;23796;51.458;7.000;2023-09-19T16:41:06;20.10;75.00
37974;DHT22;23796;51.458;7.000;2023-09-19T16:43:32;20.00;75.20
37974;DHT22;23796;51.458;7.000;2023-09-19T16:46:00;20.00;75.30